Time;durP1;ratioP1;P1;durP2;ratioP2;P2;SDS_P1;SDS_P2;PMS_P1;PMS_P2;Temp;Humidity;BMP_temperature;BMP_pressure;BME280_temperature;BME280_humidity;BME280_pressure;Samples;Min_cycle;Max_cycle;Signal;HPM_P1;HPM_P2
2022/07/29 00:01:25;;;;;;;;;;;13.60;99.90;;;;;;4963043;28;20450;-76
2022/07/29 00:03:51;;;;;;;;;;;13.60;99.90;;;;;;4962133;28;20345;-76
2022/07/29 00:06:16;;;;;;;;;;;13.60;99.90;;;;;;4960619;28;20432;-76
2022/07/29 00:08:42;;;;;;;;;;;13.50;99.90;;;;;;4960417;28;20773;-76
2022/07/29 00:11:07;;;;;;;;;;;13.50;99.90;;;;;;4961520;28;19920;-76
2022/07/29 00:13:33;;;;;;;;;;;13.50;99.90;;;;;;4960615;28;20353;-76
2022/07/29 00:15:59;;;;;;;;;;;13.40;99.90;;;;;;4941067;28;19980;-75
2022/07/29 00:18:24;;;;;;;;;;;13.40;99.90;;;;;;4948258;28;20008;-76
2022/07/29 00:20:49;;;;;;;;;;;13.30;99.90;;;;;;4946599;28;20420;-75
2022/07/29 00:23:15;;;;;;;;;;;13.30;99.90;;;;;;4959151;28;20275;-76
2022/07/29 00:25:41;;;;;;;;;;;13.20;99.90;;;;;;4959146;28;19918;-76
2022/07/29 00:28:06;;;;;;;;;;;13.20;99.90;;;;;;4946463;28;19914;-76
2022/07/29 00:30:32;;;;;;;;;;;13.10;99.90;;;;;;4961112;28;19910;-76
2022/07/29 00:32:57;;;;;;;;;;;13.10;99.90;;;;;;4961093;28;19925;-76
2022/07/29 00:38:07;;;;;;;;;;;13.00;99.90;;;;;;4960345;28;19991;-76
2022/07/29 00:40:33;;;;;;;;;;;12.90;99.90;;;;;;4961509;28;19910;-76
2022/07/29 00:42:58;;;;;;;;;;;12.90;99.90;;;;;;4961665;28;19925;-76
2022/07/29 00:45:24;;;;;;;;;;;12.90;99.90;;;;;;4961029;28;19910;-76
2022/07/29 00:47:50;;;;;;;;;;;12.80;99.90;;;;;;4959217;28;20455;-75
2022/07/29 00:50:15;;;;;;;;;;;12.80;99.90;;;;;;4943296;28;19913;-76
2022/07/29 00:52:42;;;;;;;;;;;12.80;99.90;;;;;;4961792;28;19984;-76
2022/07/29 00:55:09;;;;;;;;;;;12.70;99.90;;;;;;4962370;28;19909;-76
2022/07/29 00:57:35;;;;;;;;;;;12.70;99.90;;;;;;4961770;28;19918;-76
2022/07/29 01:00:02;;;;;;;;;;;12.60;99.90;;;;;;4960868;28;19918;-76
2022/07/29 01:02:28;;;;;;;;;;;12.60;99.90;;;;;;4961149;28;20305;-76
2022/07/29 01:04:54;;;;;;;;;;;12.40;99.90;;;;;;4961322;28;19913;-76
2022/07/29 01:07:19;;;;;;;;;;;12.40;99.90;;;;;;4956547;28;20365;-76
2022/07/29 01:09:45;;;;;;;;;;;12.30;99.90;;;;;;4959054;28;19914;-76
2022/07/29 01:12:12;;;;;;;;;;;12.30;99.90;;;;;;4961062;28;19920;-76
2022/07/29 01:14:38;;;;;;;;;;;12.20;99.90;;;;;;4961268;28;19929;-76
2022/07/29 01:17:10;;;;;;;;;;;12.20;99.90;;;;;;4961034;28;19918;-76
2022/07/29 01:19:55;;;;;;;;;;;12.20;99.90;;;;;;4958183;28;19924;-76
2022/07/29 01:22:36;;;;;;;;;;;12.10;99.90;;;;;;4960678;28;19921;-76
2022/07/29 01:25:20;;;;;;;;;;;12.10;99.90;;;;;;4959895;28;20282;-76
2022/07/29 01:28:04;;;;;;;;;;;12.00;99.90;;;;;;4961837;28;19914;-76
2022/07/29 01:30:32;;;;;;;;;;;11.90;99.90;;;;;;4960003;28;19910;-76
2022/07/29 01:33:01;;;;;;;;;;;11.80;99.90;;;;;;4960011;28;19918;-76
2022/07/29 01:35:53;;;;;;;;;;;11.80;99.90;;;;;;4959498;28;19916;-76
2022/07/29 01:38:24;;;;;;;;;;;11.70;99.90;;;;;;4958901;28;20005;-76
2022/07/29 01:40:58;;;;;;;;;;;11.70;99.90;;;;;;4942960;29;19926;-76
2022/07/29 01:43:27;;;;;;;;;;;11.70;99.90;;;;;;4942899;29;19922;-76
2022/07/29 01:45:57;;;;;;;;;;;11.60;99.90;;;;;;4949834;28;19968;-76
2022/07/29 01:48:24;;;;;;;;;;;11.60;99.90;;;;;;4960968;28;19921;-76
2022/07/29 01:51:04;;;;;;;;;;;11.60;99.90;;;;;;4961144;28;20115;-75
2022/07/29 01:53:38;;;;;;;;;;;11.50;99.90;;;;;;4961320;28;19930;-75
2022/07/29 01:56:06;;;;;;;;;;;11.50;99.90;;;;;;4957869;28;19968;-76
2022/07/29 01:58:32;;;;;;;;;;;11.50;99.90;;;;;;4942004;29;19914;-76
2022/07/29 02:00:58;;;;;;;;;;;11.40;99.90;;;;;;4959754;28;19937;-76
2022/07/29 02:03:24;;;;;;;;;;;11.40;99.90;;;;;;4960050;28;20542;-76
2022/07/29 02:05:50;;;;;;;;;;;11.40;99.90;;;;;;4958113;28;19933;-76
2022/07/29 02:08:18;;;;;;;;;;;11.40;99.90;;;;;;4960084;28;19916;-76
2022/07/29 02:10:44;;;;;;;;;;;11.40;99.90;;;;;;4958542;28;20309;-76
2022/07/29 02:13:11;;;;;;;;;;;11.40;99.90;;;;;;4940878;28;19925;-76
2022/07/29 02:15:37;;;;;;;;;;;11.40;99.90;;;;;;4960550;28;20439;-75
2022/07/29 02:18:07;;;;;;;;;;;11.40;99.90;;;;;;4960995;28;19913;-76
2022/07/29 02:20:33;;;;;;;;;;;11.40;99.90;;;;;;4959883;28;19914;-76
2022/07/29 02:22:59;;;;;;;;;;;11.50;99.90;;;;;;4961503;28;20386;-75
2022/07/29 02:25:26;;;;;;;;;;;11.40;99.90;;;;;;4963267;28;19945;-76
2022/07/29 02:27:52;;;;;;;;;;;11.50;99.90;;;;;;4963421;28;19914;-75
2022/07/29 02:30:18;;;;;;;;;;;11.40;99.90;;;;;;4962255;28;20345;-76
2022/07/29 02:32:45;;;;;;;;;;;11.40;99.90;;;;;;4962061;28;20053;-76
2022/07/29 02:35:12;;;;;;;;;;;11.40;99.90;;;;;;4963486;28;19941;-75
2022/07/29 02:37:39;;;;;;;;;;;11.30;99.90;;;;;;4963923;28;19914;-76
2022/07/29 02:40:05;;;;;;;;;;;11.30;99.90;;;;;;4963480;28;19918;-76
2022/07/29 02:42:32;;;;;;;;;;;11.40;99.90;;;;;;4959255;28;19914;-75
2022/07/29 02:44:57;;;;;;;;;;;11.40;99.90;;;;;;4963822;28;20025;-75
2022/07/29 02:47:43;;;;;;;;;;;11.40;99.90;;;;;;4965021;28;20426;-76
2022/07/29 02:50:12;;;;;;;;;;;11.40;99.90;;;;;;4962015;28;20302;-75
2022/07/29 02:52:41;;;;;;;;;;;11.50;99.90;;;;;;4962653;28;20254;-76
2022/07/29 02:55:13;;;;;;;;;;;11.50;99.90;;;;;;4961115;28;19918;-76
2022/07/29 02:57:42;;;;;;;;;;;11.50;99.90;;;;;;4963245;28;19988;-75
2022/07/29 03:00:09;;;;;;;;;;;11.50;99.90;;;;;;4964275;28;19944;-76
2022/07/29 03:02:39;;;;;;;;;;;11.50;99.90;;;;;;4964684;28;20416;-75
2022/07/29 03:05:07;;;;;;;;;;;11.50;99.90;;;;;;4961701;28;20078;-75
2022/07/29 03:07:34;;;;;;;;;;;11.50;99.90;;;;;;4960795;28;20064;-76
2022/07/29 03:09:59;;;;;;;;;;;11.40;99.90;;;;;;4961021;28;19932;-76
2022/07/29 03:12:26;;;;;;;;;;;11.40;99.90;;;;;;4962304;28;19914;-76
2022/07/29 03:14:52;;;;;;;;;;;11.20;99.90;;;;;;4960284;28;20025;-76
2022/07/29 03:17:17;;;;;;;;;;;11.10;99.90;;;;;;4960719;28;19914;-75
2022/07/29 03:19:43;;;;;;;;;;;11.00;99.90;;;;;;4962698;28;19921;-75
2022/07/29 03:22:09;;;;;;;;;;;10.90;99.90;;;;;;4962838;28;20326;-75
2022/07/29 03:24:35;;;;;;;;;;;10.90;99.90;;;;;;4960305;28;19922;-76
2022/07/29 03:27:02;;;;;;;;;;;10.80;99.90;;;;;;4942580;28;19922;-75
2022/07/29 03:29:28;;;;;;;;;;;10.80;99.90;;;;;;4957281;28;19935;-75
2022/07/29 03:31:53;;;;;;;;;;;10.80;99.90;;;;;;4962390;28;20411;-75
2022/07/29 03:34:19;;;;;;;;;;;10.80;99.90;;;;;;4958791;28;19947;-75
2022/07/29 03:36:45;;;;;;;;;;;10.80;99.90;;;;;;4960238;28;20050;-75
2022/07/29 03:39:13;;;;;;;;;;;10.80;99.90;;;;;;4962579;28;19966;-76
2022/07/29 03:41:39;;;;;;;;;;;10.70;99.90;;;;;;4961151;28;19965;-76
2022/07/29 03:44:05;;;;;;;;;;;10.80;99.90;;;;;;4962777;28;19922;-75
2022/07/29 03:46:32;;;;;;;;;;;10.80;99.90;;;;;;4962320;28;19913;-75
2022/07/29 03:48:59;;;;;;;;;;;10.80;99.90;;;;;;4963044;28;19920;-76
2022/07/29 03:51:25;;;;;;;;;;;10.90;99.90;;;;;;4962666;28;19940;-75
2022/07/29 03:53:51;;;;;;;;;;;10.90;99.90;;;;;;4963595;28;20397;-76
2022/07/29 03:56:20;;;;;;;;;;;10.90;99.90;;;;;;4961575;28;19914;-75
2022/07/29 03:58:46;;;;;;;;;;;11.00;99.90;;;;;;4963880;28;19910;-75
2022/07/29 04:01:12;;;;;;;;;;;11.00;99.90;;;;;;4962387;28;20282;-76
2022/07/29 04:03:38;;;;;;;;;;;11.10;99.90;;;;;;4963104;28;19929;-75
2022/07/29 04:06:07;;;;;;;;;;;11.20;99.90;;;;;;4946243;28;20453;-75
2022/07/29 04:08:34;;;;;;;;;;;11.20;99.90;;;;;;4960237;28;20271;-75
2022/07/29 04:10:59;;;;;;;;;;;11.30;99.90;;;;;;4962227;28;19961;-76
2022/07/29 04:13:25;;;;;;;;;;;11.40;99.90;;;;;;4963052;28;20138;-75
2022/07/29 04:15:50;;;;;;;;;;;11.50;99.90;;;;;;4961340;28;19922;-75
2022/07/29 04:18:16;;;;;;;;;;;11.50;99.90;;;;;;4961104;28;19920;-76
2022/07/29 04:20:42;;;;;;;;;;;11.50;99.90;;;;;;4963001;28;20013;-75
2022/07/29 04:23:07;;;;;;;;;;;11.50;99.90;;;;;;4958632;28;20020;-76
2022/07/29 04:25:33;;;;;;;;;;;11.50;99.90;;;;;;4959282;28;19914;-76
2022/07/29 04:28:01;;;;;;;;;;;11.50;99.90;;;;;;4961405;28;19941;-76
2022/07/29 04:30:27;;;;;;;;;;;11.40;99.90;;;;;;4962215;28;19936;-75
2022/07/29 04:32:52;;;;;;;;;;;11.40;99.90;;;;;;4960451;28;19914;-75
2022/07/29 04:35:18;;;;;;;;;;;11.40;99.90;;;;;;4950903;28;19989;-75
2022/07/29 04:37:44;;;;;;;;;;;11.40;99.90;;;;;;4959174;28;19997;-76
2022/07/29 04:40:10;;;;;;;;;;;11.50;99.90;;;;;;4948638;28;20442;-76
2022/07/29 04:42:35;;;;;;;;;;;11.50;99.90;;;;;;4943364;28;19958;-76
2022/07/29 04:45:01;;;;;;;;;;;11.70;99.90;;;;;;4961777;28;19986;-76
2022/07/29 04:47:26;;;;;;;;;;;11.80;99.90;;;;;;4962240;28;19910;-75
2022/07/29 04:49:52;;;;;;;;;;;11.90;99.90;;;;;;4950908;28;19914;-76
2022/07/29 04:52:17;;;;;;;;;;;12.00;99.90;;;;;;4960540;28;19964;-75
2022/07/29 04:54:43;;;;;;;;;;;12.20;99.90;;;;;;4957280;28;20248;-78
2022/07/29 04:57:08;;;;;;;;;;;12.40;99.90;;;;;;4962755;28;19913;-76
2022/07/29 04:59:34;;;;;;;;;;;12.50;99.90;;;;;;4961875;28;19914;-77
2022/07/29 05:01:59;;;;;;;;;;;12.70;99.90;;;;;;4962192;28;19960;-76
2022/07/29 05:04:25;;;;;;;;;;;12.80;99.90;;;;;;4955154;28;19922;-76
2022/07/29 05:06:50;;;;;;;;;;;12.90;99.90;;;;;;4958201;28;19914;-76
2022/07/29 05:09:16;;;;;;;;;;;13.10;99.90;;;;;;4961593;28;19914;-75
2022/07/29 05:11:41;;;;;;;;;;;13.20;99.90;;;;;;4962042;28;20012;-76
2022/07/29 05:14:07;;;;;;;;;;;13.40;99.90;;;;;;4959486;28;20361;-76
2022/07/29 05:16:33;;;;;;;;;;;13.50;99.90;;;;;;4962278;28;19910;-75
2022/07/29 05:18:58;;;;;;;;;;;13.60;99.90;;;;;;4962331;28;20376;-76
2022/07/29 05:21:24;;;;;;;;;;;13.70;99.90;;;;;;4957821;28;20157;-76
2022/07/29 05:23:50;;;;;;;;;;;13.70;99.90;;;;;;4960449;28;20471;-75
2022/07/29 05:26:15;;;;;;;;;;;13.70;99.90;;;;;;4961072;28;19914;-76
2022/07/29 05:28:41;;;;;;;;;;;13.80;99.90;;;;;;4961011;28;19918;-76
2022/07/29 05:31:06;;;;;;;;;;;13.90;99.90;;;;;;4955755;28;19945;-76
2022/07/29 05:33:32;;;;;;;;;;;14.00;99.90;;;;;;4958357;28;19930;-76
2022/07/29 05:35:57;;;;;;;;;;;14.10;99.90;;;;;;4955406;28;19914;-76
2022/07/29 05:38:23;;;;;;;;;;;14.20;99.90;;;;;;4952459;28;19913;-76
2022/07/29 05:40:49;;;;;;;;;;;14.20;99.90;;;;;;4957719;28;20390;-75
2022/07/29 05:43:14;;;;;;;;;;;14.30;99.90;;;;;;4958928;28;19969;-76
2022/07/29 05:45:40;;;;;;;;;;;14.40;99.90;;;;;;4960152;28;19910;-76
2022/07/29 05:48:05;;;;;;;;;;;14.40;99.90;;;;;;4962276;28;19910;-76
2022/07/29 05:50:31;;;;;;;;;;;14.60;99.90;;;;;;4958390;28;20154;-76
2022/07/29 05:52:56;;;;;;;;;;;14.60;99.90;;;;;;4959953;28;20009;-76
2022/07/29 05:55:22;;;;;;;;;;;14.80;99.90;;;;;;4960675;28;20028;-76
2022/07/29 05:57:47;;;;;;;;;;;14.80;99.90;;;;;;4964508;28;20377;-75
2022/07/29 06:00:13;;;;;;;;;;;15.00;99.90;;;;;;4964887;28;20385;-76
2022/07/29 06:02:38;;;;;;;;;;;15.10;99.90;;;;;;4962681;28;20406;-76
2022/07/29 06:05:04;;;;;;;;;;;15.30;99.90;;;;;;4962997;28;20406;-76
2022/07/29 06:07:30;;;;;;;;;;;15.50;99.90;;;;;;4963690;28;19969;-76
2022/07/29 06:09:56;;;;;;;;;;;15.60;99.90;;;;;;4965271;28;20001;-76
2022/07/29 06:12:21;;;;;;;;;;;15.80;99.90;;;;;;4965127;28;20005;-76
2022/07/29 06:14:47;;;;;;;;;;;15.90;99.90;;;;;;4964503;28;19922;-76
2022/07/29 06:17:12;;;;;;;;;;;16.10;99.90;;;;;;4962006;28;20228;-75
2022/07/29 06:19:38;;;;;;;;;;;16.30;99.90;;;;;;4964524;28;19968;-78
2022/07/29 06:22:03;;;;;;;;;;;16.40;99.90;;;;;;4965040;28;19917;-75
2022/07/29 06:24:29;;;;;;;;;;;16.70;99.90;;;;;;4963116;28;20021;-76
2022/07/29 06:26:54;;;;;;;;;;;16.90;99.90;;;;;;4964784;28;19916;-76
2022/07/29 06:29:20;;;;;;;;;;;17.10;99.90;;;;;;4963522;28;20281;-76
2022/07/29 06:31:45;;;;;;;;;;;17.20;99.90;;;;;;4957923;28;19968;-76
2022/07/29 06:34:11;;;;;;;;;;;17.40;99.90;;;;;;4961729;28;20013;-76
2022/07/29 06:36:37;;;;;;;;;;;17.40;99.90;;;;;;4963535;28;20325;-75
2022/07/29 06:39:06;;;;;;;;;;;17.50;99.90;;;;;;4962672;28;19972;-76
2022/07/29 06:41:32;;;;;;;;;;;17.70;99.90;;;;;;4965026;28;19914;-76
2022/07/29 06:43:57;;;;;;;;;;;17.80;99.90;;;;;;4964410;28;19933;-75
2022/07/29 06:46:23;;;;;;;;;;;17.90;99.90;;;;;;4962762;28;19983;-75
2022/07/29 06:48:48;;;;;;;;;;;17.90;99.90;;;;;;4964399;28;19972;-75
2022/07/29 06:51:14;;;;;;;;;;;18.20;99.90;;;;;;4964928;28;19929;-75
2022/07/29 06:53:40;;;;;;;;;;;18.50;99.90;;;;;;4959400;28;19925;-75
2022/07/29 06:56:08;;;;;;;;;;;18.80;99.90;;;;;;4961999;28;19913;-75
2022/07/29 06:58:33;;;;;;;;;;;19.10;99.90;;;;;;4960351;28;19936;-76
2022/07/29 07:01:01;;;;;;;;;;;19.20;99.90;;;;;;4956947;28;20373;-76
2022/07/29 07:03:26;;;;;;;;;;;19.60;99.90;;;;;;4962770;28;20233;-76
2022/07/29 07:05:53;;;;;;;;;;;19.90;99.90;;;;;;4951301;28;20597;-75
2022/07/29 07:08:19;;;;;;;;;;;20.00;99.90;;;;;;4954571;28;20279;-75
2022/07/29 07:10:45;;;;;;;;;;;20.20;99.90;;;;;;4953939;28;19921;-76
2022/07/29 07:13:10;;;;;;;;;;;20.30;99.90;;;;;;4954193;28;19914;-75
2022/07/29 07:15:36;;;;;;;;;;;20.30;99.90;;;;;;4952407;28;19926;-77
2022/07/29 07:18:02;;;;;;;;;;;20.60;99.90;;;;;;4954888;28;19921;-76
2022/07/29 07:20:28;;;;;;;;;;;20.70;99.90;;;;;;4960193;28;19925;-76
2022/07/29 07:22:53;;;;;;;;;;;21.10;99.90;;;;;;4956586;28;19914;-76
2022/07/29 07:25:19;;;;;;;;;;;21.20;99.90;;;;;;4959711;28;20029;-76
2022/07/29 07:27:44;;;;;;;;;;;21.30;99.90;;;;;;4961906;28;20316;-77
2022/07/29 07:30:10;;;;;;;;;;;21.40;99.90;;;;;;4955689;28;19936;-77
2022/07/29 07:32:35;;;;;;;;;;;21.80;99.90;;;;;;4955983;28;20477;-77
2022/07/29 07:35:01;;;;;;;;;;;21.90;99.90;;;;;;4960519;28;19921;-77
2022/07/29 07:37:27;;;;;;;;;;;22.00;99.90;;;;;;4961405;28;20289;-77
2022/07/29 07:39:53;;;;;;;;;;;22.40;99.90;;;;;;4962000;28;19921;-77
2022/07/29 07:42:19;;;;;;;;;;;22.60;99.90;;;;;;4959098;28;19949;-78
2022/07/29 07:44:45;;;;;;;;;;;22.70;99.90;;;;;;4960028;28;20012;-78
2022/07/29 07:47:14;;;;;;;;;;;22.50;99.90;;;;;;4960822;28;20039;-77
2022/07/29 07:49:40;;;;;;;;;;;23.10;99.90;;;;;;4274198;28;10000345;-78
2022/07/29 07:52:05;;;;;;;;;;;23.80;99.90;;;;;;4956995;28;20458;-77
2022/07/29 07:54:31;;;;;;;;;;;24.50;99.90;;;;;;4952930;28;19988;-77
2022/07/29 07:56:57;;;;;;;;;;;25.30;99.90;;;;;;4944349;28;20338;-77
2022/07/29 07:59:22;;;;;;;;;;;25.50;99.90;;;;;;4946024;28;20448;-76
2022/07/29 08:01:48;;;;;;;;;;;25.60;99.90;;;;;;4951780;28;19914;-76
2022/07/29 08:04:14;;;;;;;;;;;27.10;99.90;;;;;;4948354;28;19922;-75
2022/07/29 08:06:39;;;;;;;;;;;27.90;93.50;;;;;;4936650;28;19914;-77
2022/07/29 08:09:05;;;;;;;;;;;28.20;94.90;;;;;;4948174;28;19929;-78
2022/07/29 08:11:31;;;;;;;;;;;29.20;90.20;;;;;;4946252;28;19929;-78
2022/07/29 08:13:56;;;;;;;;;;;29.40;84.70;;;;;;4946512;28;19925;-78
2022/07/29 08:16:22;;;;;;;;;;;30.20;83.90;;;;;;4949753;28;20016;-76
2022/07/29 08:18:48;;;;;;;;;;;30.60;76.10;;;;;;4950014;28;19962;-77
2022/07/29 08:21:14;;;;;;;;;;;29.70;77.90;;;;;;4946821;28;19910;-75
2022/07/29 08:23:44;;;;;;;;;;;29.60;74.40;;;;;;4956814;28;19925;-81
2022/07/29 08:26:12;;;;;;;;;;;29.10;78.60;;;;;;4949091;28;19938;-82
2022/07/29 08:28:39;;;;;;;;;;;31.10;78.60;;;;;;4953813;28;19968;-82
2022/07/29 08:31:05;;;;;;;;;;;30.90;73.30;;;;;;4954851;28;19939;-81
2022/07/29 08:33:31;;;;;;;;;;;30.90;70.10;;;;;;4949293;28;20278;-80
2022/07/29 08:35:56;;;;;;;;;;;30.40;62.20;;;;;;4949427;28;20116;-82
2022/07/29 08:38:22;;;;;;;;;;;31.50;63.10;;;;;;4952334;28;19914;-82
2022/07/29 08:40:47;;;;;;;;;;;31.10;63.60;;;;;;4953501;28;20413;-82
2022/07/29 08:43:13;;;;;;;;;;;31.20;59.10;;;;;;4952764;28;20001;-82
2022/07/29 08:45:46;;;;;;;;;;;31.80;64.00;;;;;;4949994;28;20157;-79
2022/07/29 08:48:12;;;;;;;;;;;33.70;54.50;;;;;;4952164;28;20329;-79
2022/07/29 08:50:37;;;;;;;;;;;34.40;49.70;;;;;;4962283;28;20338;-80
2022/07/29 08:53:04;;;;;;;;;;;36.20;48.60;;;;;;4947664;28;19910;-80
2022/07/29 08:55:29;;;;;;;;;;;37.90;43.50;;;;;;4954554;28;19996;-80
2022/07/29 08:57:55;;;;;;;;;;;38.20;39.90;;;;;;4953493;28;20413;-81
2022/07/29 09:00:22;;;;;;;;;;;37.20;38.60;;;;;;4952636;28;19930;-80
2022/07/29 09:02:51;;;;;;;;;;;37.20;38.50;;;;;;4952677;28;19961;-81
2022/07/29 09:05:17;;;;;;;;;;;37.20;39.90;;;;;;4940860;28;19996;-80
2022/07/29 09:07:43;;;;;;;;;;;37.40;38.70;;;;;;4959009;28;19924;-81
2022/07/29 09:10:09;;;;;;;;;;;38.80;38.10;;;;;;4958623;28;20050;-79
2022/07/29 09:12:35;;;;;;;;;;;38.80;35.30;;;;;;4961178;28;19972;-80
2022/07/29 09:15:00;;;;;;;;;;;38.90;36.00;;;;;;4961135;28;20017;-85
2022/07/29 09:17:39;;;;;;;;;;;38.70;34.90;;;;;;4962496;28;20392;-82
2022/07/29 09:20:11;;;;;;;;;;;38.50;35.40;;;;;;4962542;28;19914;-80
2022/07/29 09:22:37;;;;;;;;;;;39.20;34.70;;;;;;4961978;28;20097;-81
2022/07/29 09:25:03;;;;;;;;;;;39.30;33.10;;;;;;4961518;28;20440;-80
2022/07/29 09:27:28;;;;;;;;;;;38.40;31.60;;;;;;4617498;28;10000147;-81
2022/07/29 09:30:00;;;;;;;;;;;38.50;31.80;;;;;;4959222;28;19917;-81
2022/07/29 09:32:26;;;;;;;;;;;38.60;31.90;;;;;;4958804;28;19917;-82
2022/07/29 09:35:11;;;;;;;;;;;38.20;33.40;;;;;;4955475;28;20380;-83
2022/07/29 09:37:37;;;;;;;;;;;37.10;31.50;;;;;;4941801;28;19957;-83
2022/07/29 09:40:11;;;;;;;;;;;37.40;30.80;;;;;;4958684;28;19914;-81
2022/07/29 09:42:37;;;;;;;;;;;37.40;32.10;;;;;;4960280;28;19914;-84
2022/07/29 09:45:05;;;;;;;;;;;37.10;32.00;;;;;;4960294;28;19976;-83
2022/07/29 09:47:40;;;;;;;;;;;37.00;33.00;;;;;;4954676;28;19910;-81
2022/07/29 09:50:06;;;;;;;;;;;36.40;33.10;;;;;;4958107;28;19949;-82
2022/07/29 09:52:31;;;;;;;;;;;37.00;33.30;;;;;;4966634;28;20019;-82
2022/07/29 09:55:07;;;;;;;;;;;36.90;34.00;;;;;;4964307;28;19954;-84
2022/07/29 09:57:32;;;;;;;;;;;36.50;30.80;;;;;;4963369;28;19960;-83
2022/07/29 10:00:05;;;;;;;;;;;37.00;32.50;;;;;;4959371;28;19914;-84
2022/07/29 10:02:32;;;;;;;;;;;36.50;32.70;;;;;;4957812;28;19921;-80
2022/07/29 10:04:57;;;;;;;;;;;36.40;31.40;;;;;;4960141;28;19928;-84
2022/07/29 10:07:23;;;;;;;;;;;36.30;33.10;;;;;;4963714;28;19914;-82
2022/07/29 10:09:54;;;;;;;;;;;36.50;32.70;;;;;;4962019;28;20293;-83
2022/07/29 10:12:19;;;;;;;;;;;36.40;33.20;;;;;;4957924;28;20008;-83
2022/07/29 10:14:45;;;;;;;;;;;36.50;33.60;;;;;;4959503;23;20373;-83
2022/07/29 10:17:10;;;;;;;;;;;37.10;32.90;;;;;;4952414;28;20366;-82
2022/07/29 10:19:37;;;;;;;;;;;37.20;30.40;;;;;;4953339;28;19910;-82
2022/07/29 10:22:03;;;;;;;;;;;37.20;33.30;;;;;;4947808;28;19922;-83
2022/07/29 10:24:30;;;;;;;;;;;37.40;31.00;;;;;;4947677;28;19976;-84
2022/07/29 10:26:56;;;;;;;;;;;37.40;32.10;;;;;;4943999;28;20397;-84
2022/07/29 10:29:22;;;;;;;;;;;37.10;30.70;;;;;;4945854;28;19914;-82
2022/07/29 10:31:53;;;;;;;;;;;36.60;32.40;;;;;;4606615;28;10000140;-83
2022/07/29 10:34:30;;;;;;;;;;;36.20;32.20;;;;;;4948304;28;19914;-83
2022/07/29 10:36:59;;;;;;;;;;;36.20;35.70;;;;;;4943378;28;19957;-83
2022/07/29 10:41:25;;;;;;;;;;;36.90;32.80;;;;;;4947339;28;19914;-87
2022/07/29 10:42:49;;;;;;;;;;;35.60;33.20;;;;;;4887494;29;19914;-85
2022/07/29 10:45:16;;;;;;;;;;;36.00;30.90;;;;;;4883302;29;20074;-83
2022/07/29 10:47:42;;;;;;;;;;;36.20;32.60;;;;;;4911289;28;19954;-85
2022/07/29 10:50:08;;;;;;;;;;;36.30;31.00;;;;;;4951293;28;19964;-85
2022/07/29 10:52:58;;;;;;;;;;;36.10;31.00;;;;;;4953093;28;19918;-86
2022/07/29 10:55:39;;;;;;;;;;;36.30;30.90;;;;;;4955636;28;19925;-84
2022/07/29 10:58:13;;;;;;;;;;;35.90;30.90;;;;;;4949337;28;20017;-88
2022/07/29 11:00:39;;;;;;;;;;;36.00;34.70;;;;;;4947313;28;19914;-82
2022/07/29 11:03:04;;;;;;;;;;;35.80;33.10;;;;;;4946437;28;20040;-80
2022/07/29 11:05:42;;;;;;;;;;;36.50;30.70;;;;;;4960165;28;20139;-80
2022/07/29 11:08:16;;;;;;;;;;;36.70;29.30;;;;;;4949843;28;20366;-81
2022/07/29 11:10:42;;;;;;;;;;;36.50;31.40;;;;;;4953107;28;19914;-80
2022/07/29 11:13:07;;;;;;;;;;;35.90;28.70;;;;;;4953277;28;20289;-79
2022/07/29 11:15:53;;;;;;;;;;;34.80;29.50;;;;;;4932426;28;19922;-79
2022/07/29 11:18:19;;;;;;;;;;;34.90;30.80;;;;;;4952594;28;20009;-81
2022/07/29 11:20:47;;;;;;;;;;;35.20;32.80;;;;;;4955114;28;22131;-76
2022/07/29 11:23:19;;;;;;;;;;;34.90;32.00;;;;;;4952493;28;19926;-77
2022/07/29 11:25:45;;;;;;;;;;;34.50;34.50;;;;;;4938610;28;19914;-78
2022/07/29 11:28:18;;;;;;;;;;;35.20;35.00;;;;;;4951376;28;20833;-77
2022/07/29 11:30:50;;;;;;;;;;;35.70;34.60;;;;;;4959155;28;20465;-80
2022/07/29 11:33:32;;;;;;;;;;;35.70;36.30;;;;;;4949679;28;19914;-80
2022/07/29 11:36:07;;;;;;;;;;;35.30;34.10;;;;;;4954363;28;19922;-78
2022/07/29 11:38:32;;;;;;;;;;;34.70;35.50;;;;;;4950209;28;19976;-78
2022/07/29 11:41:16;;;;;;;;;;;33.90;35.90;;;;;;4955962;28;19942;-78
2022/07/29 11:43:48;;;;;;;;;;;33.50;34.40;;;;;;4954861;28;20457;-78
2022/07/29 11:46:14;;;;;;;;;;;33.00;37.40;;;;;;4953977;28;19914;-79
2022/07/29 11:48:43;;;;;;;;;;;32.70;35.60;;;;;;4952536;28;20073;-77
2022/07/29 11:51:10;;;;;;;;;;;32.40;38.70;;;;;;4951798;28;19938;-80
2022/07/29 11:53:35;;;;;;;;;;;32.60;36.10;;;;;;4954791;28;19921;-78
2022/07/29 11:56:01;;;;;;;;;;;32.60;38.70;;;;;;4945109;28;19918;-78
2022/07/29 11:58:27;;;;;;;;;;;32.50;38.20;;;;;;4949057;28;19914;-78
2022/07/29 12:00:53;;;;;;;;;;;32.40;35.70;;;;;;4950420;28;20373;-78
2022/07/29 12:03:26;;;;;;;;;;;31.90;35.00;;;;;;4953167;28;19967;-77
2022/07/29 12:05:51;;;;;;;;;;;31.70;35.60;;;;;;4935589;28;20089;-79
2022/07/29 12:08:19;;;;;;;;;;;31.60;38.80;;;;;;4952922;28;20048;-79
2022/07/29 12:10:45;;;;;;;;;;;31.80;39.70;;;;;;4952310;28;19921;-78
2022/07/29 12:13:11;;;;;;;;;;;32.00;38.50;;;;;;4950618;28;19936;-78
2022/07/29 12:15:37;;;;;;;;;;;32.00;39.10;;;;;;4950346;28;20262;-78
2022/07/29 12:18:09;;;;;;;;;;;31.80;36.60;;;;;;4952637;28;20048;-78
2022/07/29 12:20:35;;;;;;;;;;;31.80;37.60;;;;;;4948004;28;19914;-77
2022/07/29 12:23:04;;;;;;;;;;;31.50;39.60;;;;;;4951679;28;19913;-77
2022/07/29 12:25:33;;;;;;;;;;;31.70;41.10;;;;;;4950337;28;19914;-77
2022/07/29 12:27:59;;;;;;;;;;;31.70;39.70;;;;;;4952601;28;20369;-78
2022/07/29 12:30:34;;;;;;;;;;;31.60;40.10;;;;;;4943108;28;19914;-78
2022/07/29 12:33:09;;;;;;;;;;;31.60;38.90;;;;;;4950128;28;19933;-79
2022/07/29 12:35:35;;;;;;;;;;;31.80;37.10;;;;;;4955541;28;19969;-79
2022/07/29 12:38:00;;;;;;;;;;;31.80;35.40;;;;;;4946833;28;19914;-78
2022/07/29 12:40:26;;;;;;;;;;;31.60;41.50;;;;;;4957517;28;20273;-78
2022/07/29 12:43:09;;;;;;;;;;;31.50;37.60;;;;;;4950791;28;19914;-77
2022/07/29 12:45:35;;;;;;;;;;;31.40;37.00;;;;;;4951502;28;19918;-78
2022/07/29 12:48:00;;;;;;;;;;;31.30;41.40;;;;;;4959852;28;20543;-78
2022/07/29 12:50:26;;;;;;;;;;;31.60;37.80;;;;;;4949399;28;19914;-78
2022/07/29 12:52:51;;;;;;;;;;;31.60;38.70;;;;;;4953884;28;20460;-77
2022/07/29 12:55:37;;;;;;;;;;;31.80;39.00;;;;;;4956289;28;20025;-78
2022/07/29 12:58:02;;;;;;;;;;;31.80;38.50;;;;;;4957430;28;19917;-81
2022/07/29 13:00:28;;;;;;;;;;;32.00;35.40;;;;;;4957720;28;19910;-78
2022/07/29 13:02:56;;;;;;;2.17;0.98;;;31.80;36.00;;;;;;4950880;28;19914;-79
2022/07/29 13:05:22;;;;;;;0.90;0.70;;;31.60;38.30;;;;;;4953520;28;20482;-79
2022/07/29 13:07:47;;;;;;;2.90;0.55;;;31.00;37.20;;;;;;4950085;28;20105;-79
2022/07/29 13:10:18;;;;;;;4.47;0.90;;;30.20;38.00;;;;;;4942930;28;20124;-79
2022/07/29 13:13:09;;;;;;;3.33;0.93;;;29.30;39.80;;;;;;4955282;28;20045;-79
2022/07/29 13:15:40;;;;;;;2.00;1.08;;;28.50;41.80;;;;;;4961991;28;20049;-79
2022/07/29 13:18:33;;;;;;;3.63;0.80;;;28.00;43.60;;;;;;4958835;28;20030;-79
2022/07/29 13:21:15;;;;;;;5.22;1.15;;;27.70;43.20;;;;;;4953040;28;20038;-78
2022/07/29 13:23:41;;;;;;;1.33;0.65;;;27.60;45.40;;;;;;4952187;28;20458;-77
2022/07/29 13:26:08;;;;;;;2.67;0.80;;;27.70;46.70;;;;;;4954848;28;20049;-77
2022/07/29 13:28:34;;;;;;;2.20;1.00;;;27.70;44.30;;;;;;4957231;28;20031;-78
2022/07/29 13:31:00;;;;;;;1.55;0.70;;;28.50;44.70;;;;;;4945899;28;20038;-78
2022/07/29 13:33:26;;;;;;;3.58;0.73;;;29.40;46.50;;;;;;4950165;28;20093;-76
2022/07/29 13:35:51;;;;;;;2.08;0.80;;;30.20;43.40;;;;;;4956729;28;20031;-77
2022/07/29 13:38:17;;;;;;;3.38;0.90;;;31.00;41.50;;;;;;4953609;28;20537;-78
2022/07/29 13:40:43;;;;;;;2.63;1.20;;;31.40;39.70;;;;;;4948741;28;20510;-80
2022/07/29 13:43:10;;;;;;;2.83;0.65;;;31.90;41.10;;;;;;4967240;28;20097;-78
2022/07/29 13:45:35;;;;;;;3.53;0.80;;;32.10;37.30;;;;;;4961749;28;20058;-77
2022/07/29 13:48:01;;;;;;;2.97;0.70;;;32.10;40.70;;;;;;4963857;28;20035;-78
2022/07/29 13:50:27;;;;;;;3.83;1.25;;;32.30;42.90;;;;;;4943976;28;20042;-78
2022/07/29 13:52:52;;;;;;;5.88;0.90;;;32.20;42.10;;;;;;4955935;28;20053;-78
2022/07/29 13:55:19;;;;;;;4.57;1.02;;;32.10;42.90;;;;;;4955064;28;20038;-79
2022/07/29 13:57:45;;;;;;;4.10;1.20;;;31.80;42.60;;;;;;4961456;28;20029;-78
2022/07/29 14:00:12;;;;;;;2.40;1.60;;;31.00;43.30;;;;;;4962367;28;20097;-78
2022/07/29 14:02:38;;;;;;;8.02;2.20;;;29.70;45.50;;;;;;4953812;28;20023;-78
2022/07/29 14:05:08;;;;;;;1.30;1.20;;;29.20;48.20;;;;;;4945063;28;20120;-78
2022/07/29 14:07:33;;;;;;;4.40;1.27;;;28.90;47.60;;;;;;4952714;28;20038;-78
2022/07/29 14:09:59;;;;;;;4.78;1.38;;;29.30;50.40;;;;;;4948275;28;20031;-80
2022/07/29 14:12:25;;;;;;;3.22;1.10;;;29.60;49.60;;;;;;4957227;28;20080;-75
2022/07/29 14:14:50;;;;;;;4.15;1.00;;;30.10;51.20;;;;;;4950367;28;20047;-77